Time;durP1;ratioP1;P1;durP2;ratioP2;P2;SDS_P1;SDS_P2;PMS_P1;PMS_P2;Temp;Humidity;BMP_temperature;BMP_pressure;BME280_temperature;BME280_humidity;BME280_pressure;Samples;Min_cycle;Max_cycle;Signal;HPM_P1;HPM_P2
2022/06/25 00:00:28;;;;;;;;;0.00;0.00;;;;;-146.67;29.96;72944.97;5025821;28;61898;-77
2022/06/25 00:02:54;;;;;;;;;0.00;0.00;;;;;-146.67;30.00;72960.94;5043878;28;61856;-76
2022/06/25 00:05:28;;;;;;;;;0.00;0.00;;;;;-146.67;30.12;72968.94;5043457;28;63177;-77
2022/06/25 00:07:55;;;;;;;;;0.00;0.00;;;;;-146.67;30.49;72964.94;5025837;28;61819;-77
2022/06/25 00:10:22;;;;;;;;;0.00;0.00;;;;;-146.67;30.05;72952.97;5043830;28;61937;-77
2022/06/25 00:12:47;;;;;;;;;0.00;0.00;;;;;-146.67;30.03;72954.97;5043561;28;61927;-77
2022/06/25 00:15:13;;;;;;;;;0.00;0.00;;;;;-146.67;30.19;72950.97;5024995;28;63568;-77
2022/06/25 00:17:38;;;;;;;;;0.00;0.00;;;;;-146.67;30.00;72970.91;5025274;28;61944;-77
2022/06/25 00:20:05;;;;;;;;;0.00;0.00;;;;;-146.67;30.29;72980.91;5025789;28;62281;-77
2022/06/25 00:22:30;;;;;;;;;0.00;0.00;;;;;-146.67;30.56;72974.91;5025833;28;62092;-77
2022/06/25 00:24:56;;;;;;;;;0.00;0.00;;;;;-146.67;30.06;72972.91;5043005;28;62764;-77
2022/06/25 00:27:22;;;;;;;;;0.00;0.00;;;;;-146.67;30.38;72978.91;5043257;28;62154;-76
2022/06/25 00:29:47;;;;;;;;;0.00;0.00;;;;;-146.67;30.49;72964.94;5043509;28;62132;-77
2022/06/25 00:32:13;;;;;;;;;0.00;0.00;;;;;-146.67;30.37;72964.94;5043667;28;61897;-77
2022/06/25 00:34:39;;;;;;;;;0.00;0.00;;;;;-146.67;30.29;72964.94;5042626;28;62977;-77
2022/06/25 00:37:06;;;;;;;;;0.00;0.00;;;;;-146.67;30.47;72970.91;5025030;28;62299;-77
2022/06/25 00:39:31;;;;;;;;;0.00;0.00;;;;;-146.67;30.32;72960.94;5043251;28;61773;-77
2022/06/25 00:41:57;;;;;;;;;0.00;0.00;;;;;-146.67;30.23;72952.97;5043380;28;61652;-77
2022/06/25 00:44:22;;;;;;;;;0.00;0.00;;;;;-146.67;30.20;72952.97;5024452;28;64080;-77
2022/06/25 00:46:48;;;;;;;;;0.00;0.00;;;;;-146.67;30.37;72954.97;5043182;28;61838;-75
2022/06/25 00:49:13;;;;;;;;;0.00;0.00;;;;;-146.67;30.34;72956.94;5024764;28;61886;-77
2022/06/25 00:51:40;;;;;;;;;0.00;0.00;;;;;-146.67;30.18;72962.94;5054637;28;61885;-77
2022/06/25 00:54:09;;;;;;;;;0.00;0.00;;;;;-146.67;30.34;72964.94;5022563;28;62879;-77
2022/06/25 00:56:39;;;;;;;;;0.00;0.00;;;;;-146.67;30.53;72958.94;5022703;28;61724;-77
2022/06/25 00:59:06;;;;;;;;;0.00;0.00;;;;;-146.67;30.41;72966.94;5022862;28;62432;-76
2022/06/25 01:01:35;;;;;;;;;0.00;0.00;;;;;-146.67;30.62;72952.97;5025402;28;61972;-76
2022/06/25 01:04:01;;;;;;;;;0.00;0.00;;;;;-146.67;30.51;72970.91;5042218;28;61933;-77
2022/06/25 01:06:28;;;;;;;;;0.00;0.00;;;;;-146.67;30.26;72986.88;5024458;28;61851;-77
2022/06/25 01:08:55;;;;;;;;;0.00;0.00;;;;;-146.67;30.83;72976.91;5024789;28;62092;-76
2022/06/25 01:11:21;;;;;;;;;0.00;0.00;;;;;-146.67;30.71;72950.97;5042757;28;61958;-76
2022/06/25 01:13:47;;;;;;;;;0.00;0.00;;;;;-146.67;30.54;72970.91;5057684;28;63522;-76
2022/06/25 01:16:12;;;;;;;;;0.00;0.00;;;;;-146.67;30.48;72964.94;5042464;28;61804;-76
2022/06/25 01:18:38;;;;;;;;;0.00;0.00;;;;;-146.67;30.58;72946.97;5042425;28;61991;-76
2022/06/25 01:21:03;;;;;;;;;0.00;0.00;;;;;-146.67;30.64;72968.94;5042748;28;62052;-76
2022/06/25 01:23:30;;;;;;;;;0.00;0.00;;;;;-146.67;30.67;72982.91;5041834;28;62166;-76
2022/06/25 01:25:55;;;;;;;;;0.00;0.00;;;;;-146.67;30.60;72966.94;5041798;28;61925;-76
2022/06/25 01:28:21;;;;;;;;;0.00;0.00;;;;;-146.67;30.80;72972.91;5024381;28;61952;-77
2022/06/25 01:30:46;;;;;;;;;0.00;0.00;;;;;-146.67;30.57;72966.94;5024329;28;61875;-77
2022/06/25 01:33:12;;;;;;;;;0.00;0.00;;;;;-146.67;30.70;72962.94;5023809;28;64696;-77
2022/06/25 01:35:37;;;;;;;;;0.00;0.00;;;;;-146.67;30.36;72958.94;5042241;28;61967;-77
2022/06/25 01:38:03;;;;;;;;;0.00;0.00;;;;;-146.67;30.36;72958.94;5042357;28;62501;-76
2022/06/25 01:40:31;;;;;;;;;0.00;0.00;;;;;-146.67;30.22;72952.97;5024379;28;62374;-77
2022/06/25 01:43:00;;;;;;;;;0.00;0.00;;;;;-146.67;30.31;72954.97;5041713;28;61842;-76
2022/06/25 01:45:31;;;;;;;;;0.00;0.00;;;;;-146.67;30.65;72976.91;5042396;28;61922;-77
2022/06/25 01:47:58;;;;;;;;;0.00;0.00;;;;;-146.67;30.80;72982.91;5042111;28;61841;-76
2022/06/25 01:50:24;;;;;;;;;0.00;0.00;;;;;-146.67;30.58;72986.88;5024681;28;62000;-77
2022/06/25 01:52:50;;;;;;;;;0.00;0.00;;;;;-146.67;30.71;72988.88;5023413;28;63952;-76
2022/06/25 01:55:17;;;;;;;;;0.00;0.00;;;;;-146.67;31.28;73008.84;5041882;28;61882;-76
2022/06/25 01:57:43;;;;;;;;;0.00;0.00;;;;;-146.67;31.35;73014.81;5041850;28;61809;-77
2022/06/25 02:00:12;;;;;;;;;0.00;0.00;;;;;-146.67;31.51;73024.81;5024132;28;61938;-77
2022/06/25 02:02:39;;;;;;;;;0.00;0.00;;;;;-146.67;31.07;73020.81;5041070;28;63151;-77
2022/06/25 02:05:06;;;;;;;;;0.00;0.00;;;;;-146.67;31.31;73034.78;5057429;28;62006;-76
2022/06/25 02:07:32;;;;;;;;;0.00;0.00;;;;;-146.67;31.28;73030.78;5041952;28;61909;-77
2022/06/25 02:09:57;;;;;;;;;0.00;0.00;;;;;-146.67;31.54;73048.75;5041952;28;62385;-77
2022/06/25 02:12:23;;;;;;;;;0.00;0.00;;;;;-146.67;31.34;73054.75;5023377;28;64348;-77
2022/06/25 02:14:48;;;;;;;;;0.00;0.00;;;;;-146.67;31.54;73046.75;5041782;28;61859;-77
2022/06/25 02:17:14;;;;;;;;;0.00;0.00;;;;;-146.67;31.72;73054.75;5041785;28;62264;-77
2022/06/25 02:19:39;;;;;;;;;0.00;0.00;;;;;-146.67;31.46;73052.75;5041431;28;62194;-77
2022/06/25 02:22:05;;;;;;;;;0.00;0.00;;;;;-146.67;31.79;73068.72;5041173;28;63145;-77
2022/06/25 02:24:30;;;;;;;;;0.00;0.00;;;;;-146.67;31.99;73086.69;5039345;28;61908;-77
2022/06/25 02:26:56;;;;;;;;;0.00;0.00;;;;;-146.67;32.17;73094.66;5041270;28;61850;-76
2022/06/25 02:29:21;;;;;;;;;0.00;0.00;;;;;-146.67;32.38;73112.63;5023716;28;62422;-77
2022/06/25 02:31:47;;;;;;;;;0.00;0.00;;;;;-146.67;32.46;73106.63;5040543;28;61771;-77
2022/06/25 02:34:12;;;;;;;;;0.00;0.00;;;;;-146.67;32.50;73108.63;5040879;28;61744;-77
2022/06/25 02:36:43;;;;;;;;;0.00;0.00;;;;;-146.67;32.74;73112.63;5043536;28;61735;-76
2022/06/25 02:39:13;;;;;;;;;0.00;0.00;;;;;-146.67;32.96;73110.63;5044803;28;62203;-77
2022/06/25 02:41:43;;;;;;;;;0.00;0.00;;;;;-146.67;32.89;73114.63;5042702;28;63266;-76
2022/06/25 02:44:08;;;;;;;;;0.00;0.00;;;;;-146.67;33.05;73112.63;5045095;28;62020;-77
2022/06/25 02:46:34;;;;;;;;;0.00;0.00;;;;;-146.67;33.19;73104.63;5027114;28;61988;-77
2022/06/25 02:48:59;;;;;;;;;0.00;0.00;;;;;-146.67;33.22;73126.59;5044637;28;61942;-76
2022/06/25 02:51:25;;;;;;;;;0.00;0.00;;;;;-146.67;32.98;73104.63;5044351;28;61824;-77
2022/06/25 02:53:50;;;;;;;;;0.00;0.00;;;;;-146.67;33.01;73098.66;5044848;28;61898;-77
2022/06/25 02:59:03;;;;;;;;;0.00;0.00;;;;;-146.67;33.15;73120.59;5044274;28;61929;-77
2022/06/25 03:01:29;;;;;;;;;0.00;0.00;;;;;-146.67;33.15;73120.59;5026103;28;64985;-77
2022/06/25 03:03:56;;;;;;;;;0.00;0.00;;;;;-146.67;33.26;73114.63;5009719;28;61905;-77
2022/06/25 03:06:22;;;;;;;;;0.00;0.00;;;;;-146.67;32.92;73106.63;5024490;28;61877;-77
2022/06/25 03:08:48;;;;;;;;;0.00;0.00;;;;;-146.67;32.87;73090.66;5025578;28;61751;-76
2022/06/25 03:11:14;;;;;;;;;0.00;0.00;;;;;-146.67;32.85;73106.63;5039168;28;63924;-76
2022/06/25 03:13:40;;;;;;;;;0.00;0.00;;;;;-146.67;33.18;73104.63;5006893;28;62347;-77
2022/06/25 03:16:08;;;;;;;;;0.00;0.00;;;;;-146.67;32.96;73096.66;5041843;28;61853;-77
2022/06/25 03:18:34;;;;;;;;;0.00;0.00;;;;;-146.67;32.67;73078.69;5044326;28;61766;-77
2022/06/25 03:21:00;;;;;;;;;0.00;0.00;;;;;-146.67;32.58;73078.69;5017649;28;63713;-76
2022/06/25 03:23:26;;;;;;;;;0.00;0.00;;;;;-146.67;32.68;73092.66;5024734;28;61739;-76
2022/06/25 03:25:51;;;;;;;;;0.00;0.00;;;;;-146.67;32.48;73094.66;5006484;28;62632;-76
2022/06/25 03:28:17;;;;;;;;;0.00;0.00;;;;;-146.67;32.27;73094.66;5022207;28;61798;-77
2022/06/25 03:30:42;;;;;;;;;1.00;1.00;;;;;-146.67;32.47;73098.66;5005972;28;63444;-77
2022/06/25 03:33:08;;;;;;;;;0.00;0.00;;;;;-146.67;32.56;73094.66;5032108;28;61960;-76
2022/06/25 03:35:34;;;;;;;;;0.00;0.00;;;;;-146.67;32.39;73096.66;5044107;28;61739;-77
2022/06/25 03:37:59;;;;;;;;;0.00;0.00;;;;;-146.67;32.41;73092.66;5016008;28;62202;-76
2022/06/25 03:40:25;;;;;;;;;0.00;0.00;;;;;-146.67;32.34;73098.66;5005304;28;63995;-77
2022/06/25 03:42:51;;;;;;;;;0.00;0.00;;;;;-146.67;32.21;73112.63;5024333;28;61896;-76
2022/06/25 03:45:16;;;;;;;;;0.00;0.00;;;;;-146.67;32.21;73112.63;5024131;28;62054;-77
2022/06/25 03:47:42;;;;;;;;;0.00;0.00;;;;;-146.67;32.36;73106.63;5023431;28;61752;-77
2022/06/25 03:50:07;;;;;;;;;0.00;0.00;;;;;-146.67;32.36;73114.63;5021134;28;64952;-77
2022/06/25 03:52:33;;;;;;;;;0.00;0.00;;;;;-146.67;32.26;73114.63;5025729;28;61830;-76
2022/06/25 03:54:59;;;;;;;;;0.00;0.00;;;;;-146.67;32.48;73138.56;5037418;28;61959;-77
2022/06/25 03:57:24;;;;;;;;;0.00;0.00;;;;;-146.67;32.44;73140.56;5023827;28;61774;-76
2022/06/25 03:59:51;;;;;;;;;0.00;0.00;;;;;-146.67;32.33;73134.56;5005429;28;64300;-77
2022/06/25 04:02:16;;;;;;;;;0.00;0.00;;;;;-146.67;32.27;73132.56;5022526;28;61847;-77
2022/06/25 04:04:42;;;;;;;;;0.00;0.00;;;;;-146.67;32.29;73120.59;5043592;28;61727;-77
2022/06/25 04:07:07;;;;;;;;;0.00;0.00;;;;;-146.67;32.25;73134.56;5043629;28;62065;-77
2022/06/25 04:09:33;;;;;;;;;0.00;0.00;;;;;-146.67;32.22;73128.59;5042971;28;63376;-77
2022/06/25 04:11:58;;;;;;;;;0.00;0.00;;;;;-146.67;32.35;73144.56;5025930;28;61839;-77
2022/06/25 04:14:23;;;;;;;;;0.00;0.00;;;;;-146.67;32.41;73142.56;5043732;28;61857;-77
2022/06/25 04:16:49;;;;;;;;;0.00;0.00;;;;;-146.67;32.43;73148.53;5026070;28;61735;-77
2022/06/25 04:19:14;;;;;;;;;0.00;0.00;;;;;-146.67;32.41;73150.53;5042285;28;62012;-77
2022/06/25 04:21:40;;;;;;;;;0.00;0.00;;;;;-146.67;32.40;73176.47;5043091;28;61725;-77
2022/06/25 04:24:05;;;;;;;;;0.00;0.00;;;;;-146.67;32.62;73176.47;5025535;28;61890;-77
2022/06/25 04:26:31;;;;;;;;;0.00;0.00;;;;;-146.67;32.52;73170.50;5025239;28;62224;-77
2022/06/25 04:29:06;;;;;;;;;0.00;0.00;;;;;-146.67;32.58;73160.50;5042375;28;62134;-76
2022/06/25 04:31:33;;;;;;;;;0.00;0.00;;;;;-146.67;32.55;73180.47;5024995;28;62072;-77
2022/06/25 04:33:59;;;;;;;;;0.00;0.00;;;;;-146.67;32.65;73178.47;5042623;28;62006;-77
2022/06/25 04:36:25;;;;;;;;;0.00;0.00;;;;;-146.67;32.65;73176.47;5043623;28;61820;-77
2022/06/25 04:38:51;;;;;;;;;0.00;0.00;;;;;-146.67;32.84;73184.47;5042033;28;61770;-77
2022/06/25 04:41:16;;;;;;;;;0.00;0.00;;;;;-146.67;32.60;73178.47;5043223;28;61779;-76
2022/06/25 04:43:42;;;;;;;;;0.00;0.00;;;;;-146.67;32.64;73158.53;5025009;28;61857;-77
2022/06/25 04:46:07;;;;;;;;;0.00;0.00;;;;;-146.67;32.31;73166.50;5043616;28;61718;-77
2022/06/25 04:48:33;;;;;;;;;0.00;0.00;;;;;-146.67;32.62;73174.50;5041715;28;62965;-77
2022/06/25 04:50:58;;;;;;;;;0.00;0.00;;;;;-146.67;32.32;73160.50;5025177;28;61772;-76
2022/06/25 04:53:24;;;;;;;;;0.00;0.00;;;;;-146.67;32.39;73146.53;5025262;28;62185;-77
2022/06/25 04:55:49;;;;;;;;;0.00;0.00;;;;;-146.67;32.21;73142.56;5024995;28;61782;-77
2022/06/25 04:58:15;;;;;;;;;0.00;0.00;;;;;-146.67;32.36;73132.56;5042428;28;61982;-77
2022/06/25 05:00:41;;;;;;;;;0.00;0.00;;;;;-146.67;32.49;73148.53;5041153;28;61849;-77
2022/06/25 05:03:07;;;;;;;;;0.00;0.00;;;;;-146.67;32.20;73150.53;5024246;28;62230;-77
2022/06/25 05:05:33;;;;;;;;;0.00;0.00;;;;;-146.67;32.41;73146.53;5025268;28;62037;-78
2022/06/25 05:07:59;;;;;;;;;0.00;0.00;;;;;-146.67;32.12;73130.59;5042103;28;63102;-77
2022/06/25 05:10:26;;;;;;;;;0.00;0.00;;;;;-146.67;32.05;73140.56;5024655;28;62380;-77
2022/06/25 05:15:35;;;;;;;;;0.00;0.00;;;;;-146.67;32.16;73128.59;5042944;28;62131;-76
2022/06/25 05:18:00;;;;;;;;;0.00;0.00;;;;;-146.67;31.90;73106.63;5041111;28;61725;-76
2022/06/25 05:20:26;;;;;;;;;0.00;0.00;;;;;-146.67;31.79;73102.63;5024790;28;61882;-76
2022/06/25 05:22:51;;;;;;;;;0.00;0.00;;;;;-146.67;31.26;73098.66;5042454;28;61734;-77
2022/06/25 05:25:17;;;;;;;;;0.00;0.00;;;;;-146.67;31.37;73096.66;5024713;28;61716;-76
2022/06/25 05:27:43;;;;;;;;;0.00;0.00;;;;;-146.67;31.06;73094.66;5057307;28;63530;-76
2022/06/25 05:30:09;;;;;;;;;0.00;0.00;;;;;-146.67;30.95;73096.66;5057773;28;62012;-77
2022/06/25 05:32:35;;;;;;;;;0.00;0.00;;;;;-146.67;30.76;73080.69;5042497;28;62182;-78
2022/06/25 05:35:01;;;;;;;;;0.00;0.00;;;;;-146.67;30.91;73086.69;5023925;28;62188;-77
2022/06/25 05:37:26;;;;;;;;;0.00;0.00;;;;;-146.67;30.56;73102.63;5023826;28;64804;-77
2022/06/25 05:39:52;;;;;;;;;0.00;0.00;;;;;-146.67;30.51;73100.66;5042241;28;62041;-77
2022/06/25 05:42:19;;;;;;;;;0.00;0.00;;;;;-146.67;30.74;73116.59;5042318;28;61946;-77
2022/06/25 05:44:45;;;;;;;;;0.00;0.00;;;;;-146.67;30.17;73100.66;5042538;28;61999;-77
2022/06/25 05:47:11;;;;;;;;;0.00;0.00;;;;;-146.67;30.45;73098.66;5041206;28;63243;-77
2022/06/25 05:49:36;;;;;;;;;0.00;0.00;;;;;-146.67;30.54;73096.66;5042079;28;61901;-77
2022/06/25 05:52:02;;;;;;;;;0.00;0.00;;;;;-146.67;30.43;73074.69;5024211;28;61807;-78
2022/06/25 05:54:28;;;;;;;;;0.00;0.00;;;;;-146.67;30.23;73072.69;5057679;28;61986;-78
2022/06/25 05:56:53;;;;;;;;;0.00;0.00;;;;;-146.67;30.40;73068.72;5023364;28;63575;-77
2022/06/25 05:59:19;;;;;;;;;0.00;0.00;;;;;-146.67;30.30;73054.75;5023505;28;61999;-77
2022/06/25 06:01:44;;;;;;;;;0.00;0.00;;;;;-146.67;29.77;73058.72;5041945;28;61986;-77
2022/06/25 06:04:09;;;;;;;;;0.00;0.00;;;;;-146.67;30.23;73074.69;5041925;28;61727;-79
2022/06/25 06:06:35;;;;;;;;;0.00;0.00;;;;;-146.67;30.02;73060.72;5041447;28;63091;-78
2022/06/25 06:09:00;;;;;;;;;0.00;0.00;;;;;-146.67;29.92;73050.75;5041505;28;61831;-78
2022/06/25 06:11:26;;;;;;;;;0.00;0.00;;;;;-146.67;29.50;73022.81;5046254;28;62174;-79
2022/06/25 06:13:51;;;;;;;;;0.00;0.00;;;;;-146.67;29.81;73014.81;5048700;28;61945;-79
2022/06/25 06:16:17;;;;;;;;;0.00;0.00;;;;;-146.67;29.35;73040.78;5047632;28;61932;-78
2022/06/25 06:18:42;;;;;;;;;0.00;0.00;;;;;-146.67;29.36;73046.75;5048408;28;62085;-78
2022/06/25 06:21:07;;;;;;;;;0.00;0.00;;;;;-146.67;29.46;73042.75;5064168;28;62066;-78
2022/06/25 06:23:33;;;;;;;;;0.00;0.00;;;;;-146.67;29.63;73044.75;5030580;28;62299;-78
2022/06/25 06:25:58;;;;;;;;;0.00;0.00;;;;;-146.67;29.18;73024.81;5047872;28;61846;-78
2022/06/25 06:28:24;;;;;;;;;0.00;0.00;;;;;-146.67;29.56;73000.84;5029734;28;61990;-78
2022/06/25 06:30:49;;;;;;;;;0.00;0.00;;;;;-146.67;29.06;72992.88;5047974;28;62223;-79
2022/06/25 06:33:15;;;;;;;;;0.00;0.00;;;;;-146.67;28.61;72970.91;5046296;28;62164;-80
2022/06/25 06:35:40;;;;;;;;;0.00;0.00;;;;;-146.67;28.93;72939.00;5028596;28;63305;-81
2022/06/25 06:38:06;;;;;;;;;0.00;0.00;;;;;-146.67;28.47;72929.00;5047673;28;61977;-81
2022/06/25 06:40:31;;;;;;;;;0.00;0.00;;;;;-146.67;28.41;72913.03;5030060;28;61906;-81
2022/06/25 06:42:57;;;;;;;;;0.00;0.00;;;;;-146.67;28.61;72941.00;5048117;28;62129;-79
2022/06/25 06:45:23;;;;;;;;;0.00;0.00;;;;;-146.67;28.75;72968.94;5029297;28;63592;-81
2022/06/25 06:47:48;;;;;;;;;0.00;0.00;;;;;-146.67;28.65;72968.94;5029052;28;61952;-81
2022/06/25 06:50:14;;;;;;;;;0.00;0.00;;;;;-146.67;28.61;72968.94;5029433;28;61952;-82
2022/06/25 06:52:39;;;;;;;;;0.00;0.00;;;;;-146.67;28.61;72964.94;5047362;28;62401;-78
2022/06/25 06:55:05;;;;;;;;;0.00;0.00;;;;;-146.67;28.58;72968.94;5046624;28;61720;-78
2022/06/25 06:57:37;;;;;;;;;0.00;0.00;;;;;-146.67;28.38;72984.91;5047433;28;61913;-78
2022/06/25 07:00:06;;;;;;;;;0.00;0.00;;;;;-146.67;28.58;72974.91;5029769;28;61965;-78
2022/06/25 07:02:32;;;;;;;;;0.00;0.00;;;;;-146.67;28.21;72966.94;5046881;28;62085;-79
2022/06/25 07:04:58;;;;;;;;;0.00;0.00;;;;;-146.67;28.54;72960.94;5028097;28;63784;-80
2022/06/25 07:07:24;;;;;;;;;0.00;0.00;;;;;-146.67;28.52;72954.97;5047527;28;61876;-85
2022/06/25 07:09:49;;;;;;;;;0.00;0.00;;;;;-146.67;28.37;72944.97;5060264;28;62170;-80
2022/06/25 07:12:15;;;;;;;;;0.00;0.00;;;;;-146.67;28.63;72960.94;5027942;28;61942;-80
2022/06/25 07:14:40;;;;;;;;;0.00;0.00;;;;;-146.67;28.42;72958.94;5027157;28;61932;-77
2022/06/25 07:17:05;;;;;;;;;0.00;0.00;;;;;-146.67;28.50;72962.94;5027631;28;62035;-77
2022/06/25 07:19:31;;;;;;;;;0.00;0.00;;;;;-146.67;29.14;72954.97;5027334;28;61864;-77
2022/06/25 07:21:57;;;;;;;;;0.00;0.00;;;;;-146.67;28.44;72935.00;5026177;28;61725;-76
2022/06/25 07:24:23;;;;;;;;;0.00;0.00;;;;;-146.67;28.25;72931.00;5040120;28;61935;-76
2022/06/25 07:26:49;;;;;;;;;0.00;0.00;;;;;-146.67;28.56;72919.03;5025163;28;61947;-76
2022/06/25 07:29:15;;;;;;;;;0.00;0.00;;;;;-146.67;28.59;72907.06;5044159;28;61887;-76
2022/06/25 07:31:40;;;;;;;;;0.00;0.00;;;;;-146.67;28.12;72887.09;5026157;28;61914;-77
2022/06/25 07:34:06;;;;;;;;;0.00;0.00;;;;;-146.67;28.58;72869.13;5025505;28;64725;-76
2022/06/25 07:36:31;;;;;;;;;0.00;0.00;;;;;-146.67;28.27;72861.16;5043907;28;61860;-75
2022/06/25 07:38:57;;;;;;;;;0.00;0.00;;;;;-146.67;28.18;72875.13;5043823;28;61817;-76
2022/06/25 07:41:23;;;;;;;;;0.00;0.00;;;;;-146.67;27.82;72889.09;5044294;28;61811;-75
2022/06/25 07:43:48;;;;;;;;;0.00;0.00;;;;;-146.67;27.93;72905.06;5058580;28;63809;-76
2022/06/25 07:46:14;;;;;;;;;0.00;0.00;;;;;-146.67;28.01;72907.06;5044319;28;61897;-76
2022/06/25 07:48:40;;;;;;;;;0.00;0.00;;;;;-146.67;28.04;72917.03;5043418;28;62126;-75
2022/06/25 07:53:50;;;;;;;;;0.00;0.00;;;;;-146.67;28.39;72891.09;5043365;28;61989;-85
2022/06/25 07:56:16;;;;;;;;;0.00;0.00;;;;;-146.67;28.08;72891.09;5025864;28;61826;-77
2022/06/25 07:58:41;;;;;;;;;0.00;0.00;;;;;-146.67;27.88;72895.09;5058736;28;61896;-78
2022/06/25 08:01:06;;;;;;;;;0.00;0.00;;;;;-146.67;27.72;72909.06;5043695;28;61841;-78
2022/06/25 08:03:32;;;;;;;;;0.00;0.00;;;;;-146.67;27.78;72903.06;5024843;28;63871;-78
2022/06/25 08:05:58;;;;;;;;;0.00;0.00;;;;;-146.67;27.68;72897.09;5025685;28;62305;-79
2022/06/25 08:08:24;;;;;;;;;0.00;0.00;;;;;-146.67;27.30;72891.09;5043525;28;61994;-77
2022/06/25 08:10:51;;;;;;;;;0.00;0.00;;;;;-146.67;27.39;72911.06;5025423;28;61812;-77
2022/06/25 08:13:17;;;;;;;;;0.00;0.00;;;;;-146.67;27.20;72899.06;5043062;28;62820;-77
2022/06/25 08:15:42;;;;;;;;;0.00;0.00;;;;;-146.67;26.88;72913.03;5043799;28;62108;-77
2022/06/25 08:18:08;;;;;;;;;0.00;0.00;;;;;-146.67;27.07;72931.00;5043932;28;61863;-78
2022/06/25 08:20:33;;;;;;;;;0.00;0.00;;;;;-146.67;27.42;72915.03;5043745;28;62066;-78
2022/06/25 08:22:58;;;;;;;;;0.00;0.00;;;;;-146.67;27.10;72915.03;5043069;28;62539;-77
2022/06/25 08:25:24;;;;;;;;;0.00;0.00;;;;;-146.67;27.08;72909.06;5043599;28;61861;-78
2022/06/25 08:27:51;;;;;;;;;0.00;0.00;;;;;-146.67;27.00;72913.03;5043672;28;62031;-78
2022/06/25 08:30:20;;;;;;;;;0.00;0.00;;;;;-146.67;27.76;72935.00;5043867;28;61901;-77
2022/06/25 08:32:46;;;;;;;;;0.00;0.00;;;;;-146.67;27.71;72950.97;5042614;28;61947;-77
2022/06/25 08:35:12;;;;;;;;;0.00;0.00;;;;;-146.67;27.72;72964.94;5025048;28;61875;-77
2022/06/25 08:37:46;;;;;;;;;0.00;0.00;;;;;-146.67;27.73;72976.91;5043456;28;62039;-77
2022/06/25 08:40:13;;;;;;;;;0.00;0.00;;;;;-146.67;27.94;72982.91;5059017;28;61866;-77
2022/06/25 08:42:38;;;;;;;;;0.00;0.00;;;;;-146.67;28.24;72974.91;5049369;28;61837;-77
2022/06/25 08:45:05;;;;;;;;;0.00;0.00;;;;;-146.67;28.09;72982.91;5041363;28;61983;-77
2022/06/25 08:47:31;;;;;;;;;0.00;0.00;;;;;-146.67;27.78;72968.94;5042133;28;62009;-77
2022/06/25 08:49:58;;;;;;;;;0.00;0.00;;;;;-146.67;27.90;72968.94;5035508;28;62243;-77
2022/06/25 08:52:27;;;;;;;;;0.00;0.00;;;;;-146.67;28.03;72978.91;5039320;28;62101;-77
2022/06/25 08:54:54;;;;;;;;;0.00;0.00;;;;;-146.67;28.09;72998.84;5041259;28;61803;-77
2022/06/25 08:57:20;;;;;;;;;0.00;0.00;;;;;-146.67;28.38;72986.88;5039133;28;61865;-77
2022/06/25 08:59:46;;;;;;;;;0.00;0.00;;;;;-146.67;28.14;72982.91;5033357;28;62269;-77
2022/06/25 09:02:16;;;;;;;;;0.00;0.00;;;;;-146.67;28.46;72990.88;5040048;28;62090;-79
2022/06/25 09:04:41;;;;;;;;;0.00;0.00;;;;;-146.67;28.70;72994.88;5040487;28;62056;-81
2022/06/25 09:07:15;;;;;;;;;0.00;0.00;;;;;-146.67;28.96;73002.84;5041547;28;62258;-78
2022/06/25 09:09:49;;;;;;;;;0.00;0.00;;;;;-146.67;29.14;73004.84;5041464;28;61930;-79
2022/06/25 09:12:17;;;;;;;;;0.00;0.00;;;;;-146.67;29.24;73026.81;5020140;28;63834;-80
2022/06/25 09:14:43;;;;;;;;;0.00;0.00;;;;;-146.67;29.08;73026.81;5022986;28;62031;-79
2022/06/25 09:17:14;;;;;;;;;0.00;0.00;;;;;-146.67;29.22;73022.81;5037075;28;61879;-78
2022/06/25 09:19:48;;;;;;;;;0.00;0.00;;;;;-146.67;28.92;73006.84;5023606;28;62247;-79
2022/06/25 09:22:15;;;;;;;;;0.00;0.00;;;;;-146.67;28.75;72972.91;5022575;28;65044;-81
2022/06/25 09:24:44;;;;;;;;;0.00;0.00;;;;;-146.67;28.70;72935.00;5042066;28;61945;-82
2022/06/25 09:27:10;;;;;;;;;0.00;0.00;;;;;-146.67;28.30;72903.06;5049670;28;62301;-80
2022/06/25 09:29:42;;;;;;;;;0.00;0.00;;;;;-146.67;27.98;72867.16;5042094;28;62175;-79
2022/06/25 09:32:09;;;;;;;;;0.00;0.00;;;;;-146.67;27.85;72825.25;5041492;28;63047;-82
2022/06/25 09:34:36;;;;;;;;;0.00;0.00;;;;;-146.67;27.84;72795.31;5042100;28;61781;-80
2022/06/25 09:37:20;;;;;;;;;0.00;0.00;;;;;-146.67;27.64;72775.34;5041840;28;61854;-81
2022/06/25 09:39:47;;;;;;;;;0.00;0.00;;;;;-146.67;27.46;72757.38;5041784;28;61818;-82
2022/06/25 09:42:22;;;;;;;;;0.00;0.00;;;;;-146.67;27.76;72749.41;5023331;28;63334;-79
2022/06/25 09:44:50;;;;;;;;;0.00;0.00;;;;;-146.67;27.43;72747.41;5041915;28;62003;-79
2022/06/25 09:47:16;;;;;;;;;0.00;0.00;;;;;-146.67;27.86;72773.34;5041779;28;62394;-79
2022/06/25 09:49:41;;;;;;;;;0.00;0.00;;;;;-146.67;27.36;72775.34;5023967;28;62180;-80
2022/06/25 09:52:08;;;;;;;;;0.00;0.00;;;;;-146.67;27.48;72775.34;5023527;28;65320;-78
2022/06/25 09:54:34;;;;;;;;;0.00;0.00;;;;;-146.67;27.35;72779.34;5042551;28;61730;-80
2022/06/25 09:57:01;;;;;;;;;0.00;0.00;;;;;-146.67;27.22;72787.31;5042611;28;61811;-81
2022/06/25 09:59:30;;;;;;;;;0.00;0.00;;;;;-146.67;27.30;72791.31;5042256;28;61727;-79
2022/06/25 10:01:58;;;;;;;;;0.00;0.00;;;;;-146.67;27.56;72789.31;5041579;28;61839;-82
2022/06/25 10:04:27;;;;;;;;;0.00;0.00;;;;;-146.67;27.34;72801.28;5040625;28;61783;-80
2022/06/25 10:06:56;;;;;;;;;0.00;0.00;;;;;-146.67;27.20;72809.28;5041847;28;61763;-79
2022/06/25 10:09:25;;;;;;;;;0.00;0.00;;;;;-146.67;27.55;72837.22;5056934;28;61926;-81
2022/06/25 10:11:52;;;;;;;;;0.00;0.00;;;;;-146.67;27.39;72847.19;5039750;28;62071;-77
2022/06/25 10:14:18;;;;;;;;;0.00;0.00;;;;;-146.67;27.66;72857.16;5047963;28;61789;-77
2022/06/25 10:16:44;;;;;;;;;0.00;0.00;;;;;-146.67;27.36;72857.16;5023376;28;61816;-78
2022/06/25 10:19:10;;;;;;;;;0.00;0.00;;;;;-146.67;27.55;72851.19;5022876;28;61883;-77
2022/06/25 10:21:36;;;;;;;;;0.00;0.00;;;;;-146.67;27.66;72849.19;5023213;28;63809;-77
2022/06/25 10:24:04;;;;;;;;;0.00;0.00;;;;;-146.67;27.67;72833.22;5041094;28;61983;-77
2022/06/25 10:26:31;;;;;;;;;0.00;0.00;;;;;-146.67;27.95;72837.22;5040819;28;62121;-77
2022/06/25 10:28:57;;;;;;;;;0.00;0.00;;;;;-146.67;27.86;72843.19;5040456;28;62361;-76
2022/06/25 10:31:22;;;;;;;;;0.00;0.00;;;;;-146.67;27.87;72801.28;5039953;28;62041;-77
2022/06/25 10:33:56;;;;;;;;;0.00;0.00;;;;;-146.67;27.77;72773.34;5022894;28;61909;-78
2022/06/25 10:36:45;;;;;;;;;0.00;0.00;;;;;-146.67;27.09;72757.38;5039537;28;61699;-77
2022/06/25 10:39:22;;;;;;;;;0.00;0.00;;;;;-146.67;27.38;72733.44;5041698;28;61929;-78
2022/06/25 10:45:08;;;;;;;;;0.00;0.00;;;;;-146.67;26.88;72695.53;5041885;28;61879;-79
2022/06/25 10:47:48;;;;;;;;;0.00;0.00;;;;;-146.67;26.31;72699.53;5022586;28;61933;-80
2022/06/25 10:50:22;;;;;;;;;0.00;0.00;;;;;-146.67;26.37;72697.53;5044396;28;62168;-80
2022/06/25 10:53:03;;;;;;;;;0.00;0.00;;;;;-146.67;26.33;72715.47;5036029;28;62107;-80
2022/06/25 10:55:30;;;;;;;;;0.00;0.00;;;;;-146.67;26.18;72725.47;5037855;28;61851;-82
2022/06/25 10:58:13;;;;;;;;;0.00;0.00;;;;;-146.67;26.36;72733.44;5024100;28;61920;-81
2022/06/25 11:00:57;;;;;;;;;0.00;0.00;;;;;-146.67;26.41;72723.47;5026391;28;61856;-77
2022/06/25 11:03:43;;;;;;;;;0.00;0.00;;;;;-146.67;26.48;72727.44;5025413;28;64874;-77
2022/06/25 11:06:32;;;;;;;;;0.00;0.00;;;;;-146.67;26.26;72719.47;5026831;28;61978;-78
2022/06/25 11:09:16;;;;;;;;;0.00;0.00;;;;;-146.67;26.30;72721.47;5042063;28;61827;-80
2022/06/25 11:11:47;;;;;;;;;0.00;0.00;;;;;-146.67;26.64;72707.50;5044471;28;61845;-81
2022/06/25 11:14:16;;;;;;;;;0.00;0.00;;;;;-146.67;26.31;72707.50;5026195;28;64476;-80
2022/06/25 11:16:41;;;;;;;;;0.00;0.00;;;;;-146.67;26.64;72691.53;5026239;28;61806;-81
2022/06/25 11:19:07;;;;;;;;;0.00;0.00;;;;;-146.67;26.61;72671.59;5027679;28;61953;-81
2022/06/25 11:21:38;;;;;;;;;0.00;0.00;;;;;-146.67;26.57;72659.59;5044344;28;61847;-82
2022/06/25 11:24:16;;;;;;;;;0.00;0.00;;;;;-146.67;26.47;72663.59;5040374;28;61925;-82
2022/06/25 11:29:37;;;;;;;;;0.00;0.00;;;;;-146.67;26.30;72667.59;5043705;28;61978;-79